<?xml version="1.0" encoding="UTF-8"?>
<gpx xmlns="http://www.topografix.com/GPX/1/1" xmlns:xsi="http://www.w3.org/2001/XMLSchema-instance" version="1.1" xsi:schemaLocation="http://www.topografix.com/GPX/1/1 http://www.topografix.com/GPX/1/1/gpx.xsd">
  <metadata>
    <name>Baltimore Triathlon Festival</name>
  </metadata>
  <trk>
    <name>Baltimore Triathlon Festival</name>
    <trkseg>
      <trkpt lat="39.362693" lon="-76.342211">
        <ele>9.612592</ele>
        <time>2024-10-06T08:14:10.000Z</time>
      </trkpt>
      <trkpt lat="39.362673" lon="-76.342274">
        <ele>9.612588</ele>
        <time>2024-10-06T08:14:11.000Z</time>
      </trkpt>
      <trkpt lat="39.362679" lon="-76.342382">
        <ele>9.612592</ele>
        <time>2024-10-06T08:14:12.000Z</time>
      </trkpt>
      <trkpt lat="39.36281" lon="-76.342514">
        <ele>9.612592</ele>
        <time>2024-10-06T08:14:14.000Z</time>
      </trkpt>
      <trkpt lat="39.362969" lon="-76.342611">
        <ele>9.612586</ele>
        <time>2024-10-06T08:14:16.000Z</time>
      </trkpt>
      <trkpt lat="39.362872" lon="-76.342802">
        <ele>9.612593</ele>
        <time>2024-10-06T08:14:18.000Z</time>
      </trkpt>
      <trkpt lat="39.362735" lon="-76.342939">
        <ele>9.612593</ele>
        <time>2024-10-06T08:14:20.000Z</time>
      </trkpt>
      <trkpt lat="39.362398" lon="-76.342986">
        <ele>9.492196</ele>
        <time>2024-10-06T08:14:24.000Z</time>
      </trkpt>
      <trkpt lat="39.362416" lon="-76.343469">
        <ele>9.318171</ele>
        <time>2024-10-06T08:14:28.000Z</time>
      </trkpt>
      <trkpt lat="39.362444" lon="-76.343639">
        <ele>9.253666</ele>
        <time>2024-10-06T08:14:29.000Z</time>
      </trkpt>
      <trkpt lat="39.362493" lon="-76.343783">
        <ele>9.197775</ele>
        <time>2024-10-06T08:14:30.000Z</time>
      </trkpt>
      <trkpt lat="39.362629" lon="-76.343937">
        <ele>9.113213</ele>
        <time>2024-10-06T08:14:32.000Z</time>
      </trkpt>
      <trkpt lat="39.363277" lon="-76.344283">
        <ele>8.783065</ele>
        <time>2024-10-06T08:14:40.000Z</time>
      </trkpt>
      <trkpt lat="39.363354" lon="-76.344346">
        <ele>8.712776</ele>
        <time>2024-10-06T08:14:41.000Z</time>
      </trkpt>
      <trkpt lat="39.363506" lon="-76.344553">
        <ele>8.520173</ele>
        <time>2024-10-06T08:14:43.000Z</time>
      </trkpt>
      <trkpt lat="39.363588" lon="-76.344803">
        <ele>8.343333</ele>
        <time>2024-10-06T08:14:45.000Z</time>
      </trkpt>
      <trkpt lat="39.363632" lon="-76.345053">
        <ele>8.167941</ele>
        <time>2024-10-06T08:14:47.000Z</time>
      </trkpt>
      <trkpt lat="39.363631" lon="-76.345366">
        <ele>7.947403</ele>
        <time>2024-10-06T08:14:50.000Z</time>
      </trkpt>
      <trkpt lat="39.363582" lon="-76.345566">
        <ele>7.812738</ele>
        <time>2024-10-06T08:14:52.000Z</time>
      </trkpt>
      <trkpt lat="39.363507" lon="-76.345793">
        <ele>7.64032</ele>
        <time>2024-10-06T08:14:54.000Z</time>
      </trkpt>
      <trkpt lat="39.363353" lon="-76.345987">
        <ele>7.452568</ele>
        <time>2024-10-06T08:14:56.000Z</time>
      </trkpt>
      <trkpt lat="39.363128" lon="-76.346185">
        <ele>7.219444</ele>
        <time>2024-10-06T08:14:59.000Z</time>
      </trkpt>
      <trkpt lat="39.362929" lon="-76.346235">
        <ele>7.126308</ele>
        <time>2024-10-06T08:15:01.000Z</time>
      </trkpt>
      <trkpt lat="39.36218" lon="-76.346321">
        <ele>6.844123</ele>
        <time>2024-10-06T08:15:09.000Z</time>
      </trkpt>
      <trkpt lat="39.362056" lon="-76.346386">
        <ele>6.798079</ele>
        <time>2024-10-06T08:15:10.000Z</time>
      </trkpt>
      <trkpt lat="39.361887" lon="-76.346554">
        <ele>6.715028</ele>
        <time>2024-10-06T08:15:12.000Z</time>
      </trkpt>
      <trkpt lat="39.361777" lon="-76.346722">
        <ele>6.655433</ele>
        <time>2024-10-06T08:15:14.000Z</time>
      </trkpt>
      <trkpt lat="39.361723" lon="-76.346867">
        <ele>6.607342</ele>
        <time>2024-10-06T08:15:15.000Z</time>
      </trkpt>
      <trkpt lat="39.36171" lon="-76.347062">
        <ele>6.552274</ele>
        <time>2024-10-06T08:15:17.000Z</time>
      </trkpt>
      <trkpt lat="39.361736" lon="-76.347312">
        <ele>6.468058</ele>
        <time>2024-10-06T08:15:19.000Z</time>
      </trkpt>
      <trkpt lat="39.361908" lon="-76.347831">
        <ele>6.266103</ele>
        <time>2024-10-06T08:15:24.000Z</time>
      </trkpt>
      <trkpt lat="39.362062" lon="-76.348236">
        <ele>6.104493</ele>
        <time>2024-10-06T08:15:28.000Z</time>
      </trkpt>
      <trkpt lat="39.362108" lon="-76.348558">
        <ele>5.985948</ele>
        <time>2024-10-06T08:15:31.000Z</time>
      </trkpt>
      <trkpt lat="39.362097" lon="-76.348753">
        <ele>5.920492</ele>
        <time>2024-10-06T08:15:33.000Z</time>
      </trkpt>
      <trkpt lat="39.362085" lon="-76.348993">
        <ele>5.834547</ele>
        <time>2024-10-06T08:15:35.000Z</time>
      </trkpt>
      <trkpt lat="39.362" lon="-76.349362">
        <ele>5.694008</ele>
        <time>2024-10-06T08:15:38.000Z</time>
      </trkpt>
      <trkpt lat="39.361944" lon="-76.349481">
        <ele>5.654833</ele>
        <time>2024-10-06T08:15:39.000Z</time>
      </trkpt>
      <trkpt lat="39.361828" lon="-76.349662">
        <ele>5.591018</ele>
        <time>2024-10-06T08:15:41.000Z</time>
      </trkpt>
      <trkpt lat="39.36103" lon="-76.350753">
        <ele>5.169854</ele>
        <time>2024-10-06T08:15:54.000Z</time>
      </trkpt>
      <trkpt lat="39.361148" lon="-76.350907">
        <ele>5.113055</ele>
        <time>2024-10-06T08:15:56.000Z</time>
      </trkpt>
      <trkpt lat="39.361318" lon="-76.351149">
        <ele>5.063613</ele>
        <time>2024-10-06T08:15:59.000Z</time>
      </trkpt>
      <trkpt lat="39.361467" lon="-76.351418">
        <ele>5.179107</ele>
        <time>2024-10-06T08:16:02.000Z</time>
      </trkpt>
      <trkpt lat="39.361539" lon="-76.351702">
        <ele>5.278601</ele>
        <time>2024-10-06T08:16:05.000Z</time>
      </trkpt>
      <trkpt lat="39.361559" lon="-76.351999">
        <ele>5.387833</ele>
        <time>2024-10-06T08:16:08.000Z</time>
      </trkpt>
      <trkpt lat="39.361563" lon="-76.352234">
        <ele>5.465309</ele>
        <time>2024-10-06T08:16:10.000Z</time>
      </trkpt>
      <trkpt lat="39.361546" lon="-76.352239">
        <ele>5.465994</ele>
        <time>2024-10-06T08:16:10.000Z</time>
      </trkpt>
      <trkpt lat="39.361459" lon="-76.352852">
        <ele>5.683001</ele>
        <time>2024-10-06T08:16:15.000Z</time>
      </trkpt>
      <trkpt lat="39.361448" lon="-76.353039">
        <ele>5.751064</ele>
        <time>2024-10-06T08:16:17.000Z</time>
      </trkpt>
      <trkpt lat="39.361438" lon="-76.35323">
        <ele>5.814942</ele>
        <time>2024-10-06T08:16:19.000Z</time>
      </trkpt>
      <trkpt lat="39.361472" lon="-76.353614">
        <ele>5.913044</ele>
        <time>2024-10-06T08:16:22.000Z</time>
      </trkpt>
      <trkpt lat="39.361709" lon="-76.354354">
        <ele>6.0878</ele>
        <time>2024-10-06T08:16:29.000Z</time>
      </trkpt>
      <trkpt lat="39.36204" lon="-76.355267">
        <ele>6.308476</ele>
        <time>2024-10-06T08:16:38.000Z</time>
      </trkpt>
      <trkpt lat="39.36209" lon="-76.355608">
        <ele>6.332468</ele>
        <time>2024-10-06T08:16:41.000Z</time>
      </trkpt>
      <trkpt lat="39.362108" lon="-76.356109">
        <ele>6.245709</ele>
        <time>2024-10-06T08:16:45.000Z</time>
      </trkpt>
      <trkpt lat="39.362086" lon="-76.356343">
        <ele>6.206891</ele>
        <time>2024-10-06T08:16:47.000Z</time>
      </trkpt>
      <trkpt lat="39.361977" lon="-76.356791">
        <ele>6.124094</ele>
        <time>2024-10-06T08:16:51.000Z</time>
      </trkpt>
      <trkpt lat="39.361976" lon="-76.356801">
        <ele>6.123534</ele>
        <time>2024-10-06T08:16:51.000Z</time>
      </trkpt>
      <trkpt lat="39.36185" lon="-76.357068">
        <ele>6.067533</ele>
        <time>2024-10-06T08:16:54.000Z</time>
      </trkpt>
      <trkpt lat="39.361683" lon="-76.357307">
        <ele>6.013674</ele>
        <time>2024-10-06T08:16:57.000Z</time>
      </trkpt>
      <trkpt lat="39.361133" lon="-76.357985">
        <ele>5.770336</ele>
        <time>2024-10-06T08:17:05.000Z</time>
      </trkpt>
      <trkpt lat="39.361806" lon="-76.358567">
        <ele>5.467692</ele>
        <time>2024-10-06T08:17:14.000Z</time>
      </trkpt>
      <trkpt lat="39.361917" lon="-76.358705">
        <ele>5.411055</ele>
        <time>2024-10-06T08:17:16.000Z</time>
      </trkpt>
      <trkpt lat="39.362089" lon="-76.359004">
        <ele>5.304191</ele>
        <time>2024-10-06T08:17:19.000Z</time>
      </trkpt>
      <trkpt lat="39.362153" lon="-76.359195">
        <ele>5.262512</ele>
        <time>2024-10-06T08:17:21.000Z</time>
      </trkpt>
      <trkpt lat="39.362211" lon="-76.359492">
        <ele>5.21287</ele>
        <time>2024-10-06T08:17:24.000Z</time>
      </trkpt>
      <trkpt lat="39.362215" lon="-76.359753">
        <ele>5.170897</ele>
        <time>2024-10-06T08:17:26.000Z</time>
      </trkpt>
      <trkpt lat="39.362203" lon="-76.360192">
        <ele>5.102379</ele>
        <time>2024-10-06T08:17:30.000Z</time>
      </trkpt>
      <trkpt lat="39.362188" lon="-76.360598">
        <ele>5.036324</ele>
        <time>2024-10-06T08:17:33.000Z</time>
      </trkpt>
      <trkpt lat="39.362209" lon="-76.361379">
        <ele>4.913766</ele>
        <time>2024-10-06T08:17:40.000Z</time>
      </trkpt>
      <trkpt lat="39.363124" lon="-76.361161">
        <ele>5.251392</ele>
        <time>2024-10-06T08:17:50.000Z</time>
      </trkpt>
      <trkpt lat="39.3634" lon="-76.361026">
        <ele>5.354339</ele>
        <time>2024-10-06T08:17:53.000Z</time>
      </trkpt>
      <trkpt lat="39.363524" lon="-76.360939">
        <ele>5.409251</ele>
        <time>2024-10-06T08:17:55.000Z</time>
      </trkpt>
      <trkpt lat="39.363691" lon="-76.360776">
        <ele>5.485834</ele>
        <time>2024-10-06T08:17:57.000Z</time>
      </trkpt>
      <trkpt lat="39.363942" lon="-76.360476">
        <ele>5.571576</ele>
        <time>2024-10-06T08:18:01.000Z</time>
      </trkpt>
      <trkpt lat="39.364223" lon="-76.360122">
        <ele>5.600002</ele>
        <time>2024-10-06T08:18:05.000Z</time>
      </trkpt>
      <trkpt lat="39.364504" lon="-76.359792">
        <ele>5.626551</ele>
        <time>2024-10-06T08:18:09.000Z</time>
      </trkpt>
      <trkpt lat="39.364787" lon="-76.35944">
        <ele>5.65514</ele>
        <time>2024-10-06T08:18:13.000Z</time>
      </trkpt>
      <trkpt lat="39.365061" lon="-76.35906">
        <ele>5.683542</ele>
        <time>2024-10-06T08:18:17.000Z</time>
      </trkpt>
      <trkpt lat="39.365304" lon="-76.358654">
        <ele>5.648877</ele>
        <time>2024-10-06T08:18:21.000Z</time>
      </trkpt>
      <trkpt lat="39.366064" lon="-76.357534">
        <ele>5.479431</ele>
        <time>2024-10-06T08:18:34.000Z</time>
      </trkpt>
      <trkpt lat="39.366589" lon="-76.356833">
        <ele>5.482408</ele>
        <time>2024-10-06T08:18:42.000Z</time>
      </trkpt>
      <trkpt lat="39.367022" lon="-76.356243">
        <ele>5.576203</ele>
        <time>2024-10-06T08:18:49.000Z</time>
      </trkpt>
      <trkpt lat="39.367288" lon="-76.355907">
        <ele>5.631239</ele>
        <time>2024-10-06T08:18:53.000Z</time>
      </trkpt>
      <trkpt lat="39.367381" lon="-76.355776">
        <ele>5.652976</ele>
        <time>2024-10-06T08:18:55.000Z</time>
      </trkpt>
      <trkpt lat="39.367585" lon="-76.355419">
        <ele>5.707634</ele>
        <time>2024-10-06T08:18:59.000Z</time>
      </trkpt>
      <trkpt lat="39.36797" lon="-76.354648">
        <ele>5.879412</ele>
        <time>2024-10-06T08:19:07.000Z</time>
      </trkpt>
      <trkpt lat="39.368128" lon="-76.354354">
        <ele>5.945053</ele>
        <time>2024-10-06T08:19:10.000Z</time>
      </trkpt>
      <trkpt lat="39.36829" lon="-76.35416">
        <ele>5.995815</ele>
        <time>2024-10-06T08:19:12.000Z</time>
      </trkpt>
      <trkpt lat="39.368555" lon="-76.353918">
        <ele>6.074026</ele>
        <time>2024-10-06T08:19:16.000Z</time>
      </trkpt>
      <trkpt lat="39.369107" lon="-76.353522">
        <ele>6.063415</ele>
        <time>2024-10-06T08:19:23.000Z</time>
      </trkpt>
      <trkpt lat="39.370237" lon="-76.352717">
        <ele>5.894382</ele>
        <time>2024-10-06T08:19:37.000Z</time>
      </trkpt>
      <trkpt lat="39.370757" lon="-76.352359">
        <ele>5.5627</ele>
        <time>2024-10-06T08:19:44.000Z</time>
      </trkpt>
      <trkpt lat="39.370919" lon="-76.352266">
        <ele>5.44615</ele>
        <time>2024-10-06T08:19:46.000Z</time>
      </trkpt>
      <trkpt lat="39.371195" lon="-76.352242">
        <ele>5.268472</ele>
        <time>2024-10-06T08:19:49.000Z</time>
      </trkpt>
      <trkpt lat="39.371208" lon="-76.351935">
        <ele>5.118611</ele>
        <time>2024-10-06T08:19:52.000Z</time>
      </trkpt>
      <trkpt lat="39.371353" lon="-76.351441">
        <ele>4.860138</ele>
        <time>2024-10-06T08:19:57.000Z</time>
      </trkpt>
      <trkpt lat="39.371803" lon="-76.350285">
        <ele>4.499599</ele>
        <time>2024-10-06T08:20:08.000Z</time>
      </trkpt>
      <trkpt lat="39.371911" lon="-76.35003">
        <ele>4.426497</ele>
        <time>2024-10-06T08:20:10.000Z</time>
      </trkpt>
      <trkpt lat="39.372133" lon="-76.349452">
        <ele>4.274621</ele>
        <time>2024-10-06T08:20:16.000Z</time>
      </trkpt>
      <trkpt lat="39.372705" lon="-76.347997">
        <ele>3.905824</ele>
        <time>2024-10-06T08:20:30.000Z</time>
      </trkpt>
      <trkpt lat="39.37267" lon="-76.347946">
        <ele>3.894094</ele>
        <time>2024-10-06T08:20:31.000Z</time>
      </trkpt>
      <trkpt lat="39.372053" lon="-76.345056">
        <ele>2.998793</ele>
        <time>2024-10-06T08:20:57.000Z</time>
      </trkpt>
      <trkpt lat="39.371509" lon="-76.342571">
        <ele>3.097381</ele>
        <time>2024-10-06T08:21:19.000Z</time>
      </trkpt>
      <trkpt lat="39.371048" lon="-76.340414">
        <ele>3.89959</ele>
        <time>2024-10-06T08:21:38.000Z</time>
      </trkpt>
      <trkpt lat="39.372146" lon="-76.339815">
        <ele>4.363899</ele>
        <time>2024-10-06T08:21:51.000Z</time>
      </trkpt>
      <trkpt lat="39.372901" lon="-76.339402">
        <ele>4.625348</ele>
        <time>2024-10-06T08:22:00.000Z</time>
      </trkpt>
      <trkpt lat="39.372907" lon="-76.339394">
        <ele>4.625077</ele>
        <time>2024-10-06T08:22:00.000Z</time>
      </trkpt>
      <trkpt lat="39.372956" lon="-76.339379">
        <ele>4.623131</ele>
        <time>2024-10-06T08:22:01.000Z</time>
      </trkpt>
      <trkpt lat="39.373" lon="-76.339383">
        <ele>4.621797</ele>
        <time>2024-10-06T08:22:01.000Z</time>
      </trkpt>
      <trkpt lat="39.373025" lon="-76.339552">
        <ele>4.617731</ele>
        <time>2024-10-06T08:22:02.000Z</time>
      </trkpt>
      <trkpt lat="39.37347" lon="-76.341597">
        <ele>4.585301</ele>
        <time>2024-10-06T08:22:20.000Z</time>
      </trkpt>
      <trkpt lat="39.373518" lon="-76.341843">
        <ele>4.598562</ele>
        <time>2024-10-06T08:22:22.000Z</time>
      </trkpt>
      <trkpt lat="39.373939" lon="-76.343795">
        <ele>4.707931</ele>
        <time>2024-10-06T08:22:39.000Z</time>
      </trkpt>
      <trkpt lat="39.374058" lon="-76.344335">
        <ele>4.737346</ele>
        <time>2024-10-06T08:22:44.000Z</time>
      </trkpt>
      <trkpt lat="39.374126" lon="-76.344697">
        <ele>4.757522</ele>
        <time>2024-10-06T08:22:47.000Z</time>
      </trkpt>
      <trkpt lat="39.374164" lon="-76.344854">
        <ele>4.765837</ele>
        <time>2024-10-06T08:22:48.000Z</time>
      </trkpt>
      <trkpt lat="39.374216" lon="-76.345119">
        <ele>4.780581</ele>
        <time>2024-10-06T08:22:50.000Z</time>
      </trkpt>
      <trkpt lat="39.374397" lon="-76.345957">
        <ele>4.778467</ele>
        <time>2024-10-06T08:22:57.000Z</time>
      </trkpt>
      <trkpt lat="39.374416" lon="-76.346106">
        <ele>4.730668</ele>
        <time>2024-10-06T08:22:58.000Z</time>
      </trkpt>
      <trkpt lat="39.374333" lon="-76.346371">
        <ele>4.647689</ele>
        <time>2024-10-06T08:23:00.000Z</time>
      </trkpt>
      <trkpt lat="39.374228" lon="-76.346556">
        <ele>4.578852</ele>
        <time>2024-10-06T08:23:02.000Z</time>
      </trkpt>
      <trkpt lat="39.374094" lon="-76.34707">
        <ele>4.413926</ele>
        <time>2024-10-06T08:23:07.000Z</time>
      </trkpt>
      <trkpt lat="39.374027" lon="-76.348629">
        <ele>3.876785</ele>
        <time>2024-10-06T08:23:20.000Z</time>
      </trkpt>
      <trkpt lat="39.374039" lon="-76.348883">
        <ele>3.77682</ele>
        <time>2024-10-06T08:23:22.000Z</time>
      </trkpt>
      <trkpt lat="39.374098" lon="-76.349316">
        <ele>3.590726</ele>
        <time>2024-10-06T08:23:26.000Z</time>
      </trkpt>
      <trkpt lat="39.374295" lon="-76.350052">
        <ele>3.281026</ele>
        <time>2024-10-06T08:23:33.000Z</time>
      </trkpt>
      <trkpt lat="39.374566" lon="-76.350849">
        <ele>3.114083</ele>
        <time>2024-10-06T08:23:40.000Z</time>
      </trkpt>
      <trkpt lat="39.374819" lon="-76.351221">
        <ele>3.070007</ele>
        <time>2024-10-06T08:23:44.000Z</time>
      </trkpt>
      <trkpt lat="39.37494" lon="-76.351386">
        <ele>3.050206</ele>
        <time>2024-10-06T08:23:46.000Z</time>
      </trkpt>
      <trkpt lat="39.37542" lon="-76.35201">
        <ele>2.974343</ele>
        <time>2024-10-06T08:23:54.000Z</time>
      </trkpt>
      <trkpt lat="39.375886" lon="-76.352472">
        <ele>3.38181</ele>
        <time>2024-10-06T08:24:01.000Z</time>
      </trkpt>
      <trkpt lat="39.376233" lon="-76.352787">
        <ele>3.739505</ele>
        <time>2024-10-06T08:24:06.000Z</time>
      </trkpt>
      <trkpt lat="39.376743" lon="-76.353111">
        <ele>4.221185</ele>
        <time>2024-10-06T08:24:12.000Z</time>
      </trkpt>
      <trkpt lat="39.376949" lon="-76.353239">
        <ele>4.406804</ele>
        <time>2024-10-06T08:24:15.000Z</time>
      </trkpt>
      <trkpt lat="39.377205" lon="-76.353366">
        <ele>4.538574</ele>
        <time>2024-10-06T08:24:18.000Z</time>
      </trkpt>
      <trkpt lat="39.377791" lon="-76.353649">
        <ele>4.712699</ele>
        <time>2024-10-06T08:24:25.000Z</time>
      </trkpt>
      <trkpt lat="39.377742" lon="-76.353759">
        <ele>4.737367</ele>
        <time>2024-10-06T08:24:26.000Z</time>
      </trkpt>
      <trkpt lat="39.377199" lon="-76.354237">
        <ele>4.920935</ele>
        <time>2024-10-06T08:24:33.000Z</time>
      </trkpt>
      <trkpt lat="39.376482" lon="-76.354823">
        <ele>4.833936</ele>
        <time>2024-10-06T08:24:42.000Z</time>
      </trkpt>
      <trkpt lat="39.375579" lon="-76.355557">
        <ele>4.560315</ele>
        <time>2024-10-06T08:24:54.000Z</time>
      </trkpt>
      <trkpt lat="39.37537" lon="-76.355763">
        <ele>4.605394</ele>
        <time>2024-10-06T08:24:57.000Z</time>
      </trkpt>
      <trkpt lat="39.37419" lon="-76.356744">
        <ele>5.402442</ele>
        <time>2024-10-06T08:25:13.000Z</time>
      </trkpt>
      <trkpt lat="39.373233" lon="-76.357546">
        <ele>5.784134</ele>
        <time>2024-10-06T08:25:26.000Z</time>
      </trkpt>
      <trkpt lat="39.373066" lon="-76.357683">
        <ele>5.837243</ele>
        <time>2024-10-06T08:25:28.000Z</time>
      </trkpt>
      <trkpt lat="39.37286" lon="-76.35787">
        <ele>5.907594</ele>
        <time>2024-10-06T08:25:31.000Z</time>
      </trkpt>
      <trkpt lat="39.372107" lon="-76.3585">
        <ele>5.947926</ele>
        <time>2024-10-06T08:25:41.000Z</time>
      </trkpt>
      <trkpt lat="39.370008" lon="-76.360304">
        <ele>5.553533</ele>
        <time>2024-10-06T08:26:09.000Z</time>
      </trkpt>
      <trkpt lat="39.369153" lon="-76.361046">
        <ele>5.576599</ele>
        <time>2024-10-06T08:26:20.000Z</time>
      </trkpt>
      <trkpt lat="39.367792" lon="-76.362231">
        <ele>5.967194</ele>
        <time>2024-10-06T08:26:38.000Z</time>
      </trkpt>
      <trkpt lat="39.36757" lon="-76.36241">
        <ele>6.008951</ele>
        <time>2024-10-06T08:26:41.000Z</time>
      </trkpt>
      <trkpt lat="39.365915" lon="-76.363866">
        <ele>6.213707</ele>
        <time>2024-10-06T08:27:03.000Z</time>
      </trkpt>
      <trkpt lat="39.365603" lon="-76.364146">
        <ele>6.204303</ele>
        <time>2024-10-06T08:27:07.000Z</time>
      </trkpt>
      <trkpt lat="39.363439" lon="-76.366042">
        <ele>5.81602</ele>
        <time>2024-10-06T08:27:36.000Z</time>
      </trkpt>
      <trkpt lat="39.36317" lon="-76.366256">
        <ele>5.729885</ele>
        <time>2024-10-06T08:27:40.000Z</time>
      </trkpt>
      <trkpt lat="39.36299" lon="-76.366357">
        <ele>5.673084</ele>
        <time>2024-10-06T08:27:42.000Z</time>
      </trkpt>
      <trkpt lat="39.362174" lon="-76.366768">
        <ele>5.431452</ele>
        <time>2024-10-06T08:27:52.000Z</time>
      </trkpt>
      <trkpt lat="39.361915" lon="-76.366965">
        <ele>5.348099</ele>
        <time>2024-10-06T08:27:55.000Z</time>
      </trkpt>
      <trkpt lat="39.361625" lon="-76.367286">
        <ele>5.350377</ele>
        <time>2024-10-06T08:27:59.000Z</time>
      </trkpt>
      <trkpt lat="39.361324" lon="-76.367656">
        <ele>5.363759</ele>
        <time>2024-10-06T08:28:04.000Z</time>
      </trkpt>
      <trkpt lat="39.360636" lon="-76.368493">
        <ele>5.393743</ele>
        <time>2024-10-06T08:28:15.000Z</time>
      </trkpt>
      <trkpt lat="39.360249" lon="-76.368928">
        <ele>5.387814</ele>
        <time>2024-10-06T08:28:21.000Z</time>
      </trkpt>
      <trkpt lat="39.360188" lon="-76.369004">
        <ele>5.385972</ele>
        <time>2024-10-06T08:28:22.000Z</time>
      </trkpt>
      <trkpt lat="39.360022" lon="-76.36921">
        <ele>5.381112</ele>
        <time>2024-10-06T08:28:25.000Z</time>
      </trkpt>
      <trkpt lat="39.35997" lon="-76.369274">
        <ele>5.379643</ele>
        <time>2024-10-06T08:28:26.000Z</time>
      </trkpt>
      <trkpt lat="39.359812" lon="-76.369439">
        <ele>5.375265</ele>
        <time>2024-10-06T08:28:28.000Z</time>
      </trkpt>
      <trkpt lat="39.359624" lon="-76.369668">
        <ele>5.369825</ele>
        <time>2024-10-06T08:28:31.000Z</time>
      </trkpt>
      <trkpt lat="39.359568" lon="-76.369752">
        <ele>5.368079</ele>
        <time>2024-10-06T08:28:32.000Z</time>
      </trkpt>
      <trkpt lat="39.359152" lon="-76.370276">
        <ele>5.393182</ele>
        <time>2024-10-06T08:28:38.000Z</time>
      </trkpt>
      <trkpt lat="39.358652" lon="-76.371061">
        <ele>5.5874</ele>
        <time>2024-10-06T08:28:47.000Z</time>
      </trkpt>
      <trkpt lat="39.358372" lon="-76.371548">
        <ele>5.700762</ele>
        <time>2024-10-06T08:28:52.000Z</time>
      </trkpt>
      <trkpt lat="39.358098" lon="-76.372">
        <ele>5.80208</ele>
        <time>2024-10-06T08:28:57.000Z</time>
      </trkpt>
      <trkpt lat="39.357881" lon="-76.372309">
        <ele>5.814484</ele>
        <time>2024-10-06T08:29:01.000Z</time>
      </trkpt>
      <trkpt lat="39.357833" lon="-76.372356">
        <ele>5.816632</ele>
        <time>2024-10-06T08:29:02.000Z</time>
      </trkpt>
      <trkpt lat="39.357774" lon="-76.372423">
        <ele>5.819791</ele>
        <time>2024-10-06T08:29:03.000Z</time>
      </trkpt>
      <trkpt lat="39.357617" lon="-76.372598">
        <ele>5.827645</ele>
        <time>2024-10-06T08:29:05.000Z</time>
      </trkpt>
      <trkpt lat="39.357319" lon="-76.372878">
        <ele>5.842275</ele>
        <time>2024-10-06T08:29:09.000Z</time>
      </trkpt>
      <trkpt lat="39.357155" lon="-76.37302">
        <ele>5.84971</ele>
        <time>2024-10-06T08:29:11.000Z</time>
      </trkpt>
      <trkpt lat="39.356811" lon="-76.373318">
        <ele>5.865156</ele>
        <time>2024-10-06T08:29:16.000Z</time>
      </trkpt>
      <trkpt lat="39.356593" lon="-76.373517">
        <ele>5.803948</ele>
        <time>2024-10-06T08:29:19.000Z</time>
      </trkpt>
      <trkpt lat="39.356343" lon="-76.37373">
        <ele>5.689659</ele>
        <time>2024-10-06T08:29:22.000Z</time>
      </trkpt>
      <trkpt lat="39.356036" lon="-76.373997">
        <ele>5.539635</ele>
        <time>2024-10-06T08:29:26.000Z</time>
      </trkpt>
      <trkpt lat="39.355978" lon="-76.374055">
        <ele>5.507088</ele>
        <time>2024-10-06T08:29:27.000Z</time>
      </trkpt>
      <trkpt lat="39.355801" lon="-76.374196">
        <ele>5.424715</ele>
        <time>2024-10-06T08:29:29.000Z</time>
      </trkpt>
      <trkpt lat="39.355682" lon="-76.374297">
        <ele>5.370179</ele>
        <time>2024-10-06T08:29:31.000Z</time>
      </trkpt>
      <trkpt lat="39.355185" lon="-76.374736">
        <ele>5.142909</ele>
        <time>2024-10-06T08:29:38.000Z</time>
      </trkpt>
      <trkpt lat="39.354254" lon="-76.375548">
        <ele>4.985191</ele>
        <time>2024-10-06T08:29:50.000Z</time>
      </trkpt>
      <trkpt lat="39.353816" lon="-76.375938">
        <ele>4.909307</ele>
        <time>2024-10-06T08:29:56.000Z</time>
      </trkpt>
      <trkpt lat="39.353554" lon="-76.37617">
        <ele>4.983299</ele>
        <time>2024-10-06T08:30:00.000Z</time>
      </trkpt>
      <trkpt lat="39.353404" lon="-76.376286">
        <ele>5.051264</ele>
        <time>2024-10-06T08:30:02.000Z</time>
      </trkpt>
      <trkpt lat="39.353171" lon="-76.376501">
        <ele>5.157454</ele>
        <time>2024-10-06T08:30:05.000Z</time>
      </trkpt>
      <trkpt lat="39.35262" lon="-76.376969">
        <ele>5.409966</ele>
        <time>2024-10-06T08:30:12.000Z</time>
      </trkpt>
      <trkpt lat="39.351944" lon="-76.377551">
        <ele>5.78731</ele>
        <time>2024-10-06T08:30:21.000Z</time>
      </trkpt>
      <trkpt lat="39.351253" lon="-76.378145">
        <ele>6.270899</ele>
        <time>2024-10-06T08:30:30.000Z</time>
      </trkpt>
      <trkpt lat="39.350717" lon="-76.378603">
        <ele>6.629084</ele>
        <time>2024-10-06T08:30:37.000Z</time>
      </trkpt>
      <trkpt lat="39.350416" lon="-76.37898">
        <ele>6.74848</ele>
        <time>2024-10-06T08:30:42.000Z</time>
      </trkpt>
      <trkpt lat="39.350238" lon="-76.379343">
        <ele>6.842399</ele>
        <time>2024-10-06T08:30:46.000Z</time>
      </trkpt>
      <trkpt lat="39.35007" lon="-76.37983">
        <ele>6.957592</ele>
        <time>2024-10-06T08:30:51.000Z</time>
      </trkpt>
      <trkpt lat="39.349948" lon="-76.38023">
        <ele>7.050076</ele>
        <time>2024-10-06T08:30:55.000Z</time>
      </trkpt>
      <trkpt lat="39.349794" lon="-76.38081">
        <ele>7.013802</ele>
        <time>2024-10-06T08:31:00.000Z</time>
      </trkpt>
      <trkpt lat="39.348869" lon="-76.383868">
        <ele>5.750581</ele>
        <time>2024-10-06T08:31:28.000Z</time>
      </trkpt>
      <trkpt lat="39.34884" lon="-76.383962">
        <ele>5.717954</ele>
        <time>2024-10-06T08:31:29.000Z</time>
      </trkpt>
      <trkpt lat="39.347699" lon="-76.387802">
        <ele>5.513668</ele>
        <time>2024-10-06T08:32:04.000Z</time>
      </trkpt>
      <trkpt lat="39.347577" lon="-76.388252">
        <ele>5.580797</ele>
        <time>2024-10-06T08:32:08.000Z</time>
      </trkpt>
      <trkpt lat="39.347429" lon="-76.388753">
        <ele>5.657417</ele>
        <time>2024-10-06T08:32:13.000Z</time>
      </trkpt>
      <trkpt lat="39.34708" lon="-76.389898">
        <ele>6.091752</ele>
        <time>2024-10-06T08:32:24.000Z</time>
      </trkpt>
      <trkpt lat="39.346789" lon="-76.390792">
        <ele>6.585671</ele>
        <time>2024-10-06T08:32:32.000Z</time>
      </trkpt>
      <trkpt lat="39.346515" lon="-76.391375">
        <ele>6.909471</ele>
        <time>2024-10-06T08:32:38.000Z</time>
      </trkpt>
      <trkpt lat="39.34629" lon="-76.391733">
        <ele>6.89192</ele>
        <time>2024-10-06T08:32:42.000Z</time>
      </trkpt>
      <trkpt lat="39.345888" lon="-76.392241">
        <ele>6.863427</ele>
        <time>2024-10-06T08:32:48.000Z</time>
      </trkpt>
      <trkpt lat="39.345538" lon="-76.392635">
        <ele>6.840456</ele>
        <time>2024-10-06T08:32:53.000Z</time>
      </trkpt>
      <trkpt lat="39.345472" lon="-76.3927">
        <ele>6.836683</ele>
        <time>2024-10-06T08:32:54.000Z</time>
      </trkpt>
      <trkpt lat="39.345446" lon="-76.392711">
        <ele>6.835175</ele>
        <time>2024-10-06T08:32:54.000Z</time>
      </trkpt>
      <trkpt lat="39.345328" lon="-76.392835">
        <ele>6.827842</ele>
        <time>2024-10-06T08:32:56.000Z</time>
      </trkpt>
      <trkpt lat="39.345183" lon="-76.392992">
        <ele>6.797327</ele>
        <time>2024-10-06T08:32:58.000Z</time>
      </trkpt>
      <trkpt lat="39.345041" lon="-76.393161">
        <ele>6.707729</ele>
        <time>2024-10-06T08:33:00.000Z</time>
      </trkpt>
      <trkpt lat="39.344917" lon="-76.39329">
        <ele>6.634659</ele>
        <time>2024-10-06T08:33:02.000Z</time>
      </trkpt>
      <trkpt lat="39.344407" lon="-76.393829">
        <ele>6.346201</ele>
        <time>2024-10-06T08:33:09.000Z</time>
      </trkpt>
      <trkpt lat="39.344136" lon="-76.394111">
        <ele>6.189825</ele>
        <time>2024-10-06T08:33:13.000Z</time>
      </trkpt>
      <trkpt lat="39.34425" lon="-76.394253">
        <ele>6.117807</ele>
        <time>2024-10-06T08:33:15.000Z</time>
      </trkpt>
      <trkpt lat="39.344355" lon="-76.394293">
        <ele>6.062906</ele>
        <time>2024-10-06T08:33:16.000Z</time>
      </trkpt>
      <trkpt lat="39.344501" lon="-76.394295">
        <ele>6.064229</ele>
        <time>2024-10-06T08:33:18.000Z</time>
      </trkpt>
      <trkpt lat="39.34584" lon="-76.394225">
        <ele>7.341103</ele>
        <time>2024-10-06T08:33:33.000Z</time>
      </trkpt>
      <trkpt lat="39.346407" lon="-76.394205">
        <ele>7.839499</ele>
        <time>2024-10-06T08:33:39.000Z</time>
      </trkpt>
      <trkpt lat="39.34709" lon="-76.394171">
        <ele>8.307863</ele>
        <time>2024-10-06T08:33:47.000Z</time>
      </trkpt>
      <trkpt lat="39.34716" lon="-76.394167">
        <ele>8.358631</ele>
        <time>2024-10-06T08:33:48.000Z</time>
      </trkpt>
      <trkpt lat="39.347428" lon="-76.394139">
        <ele>8.540799</ele>
        <time>2024-10-06T08:33:51.000Z</time>
      </trkpt>
      <trkpt lat="39.347524" lon="-76.394141">
        <ele>8.60748</ele>
        <time>2024-10-06T08:33:52.000Z</time>
      </trkpt>
      <trkpt lat="39.347689" lon="-76.394123">
        <ele>8.719705</ele>
        <time>2024-10-06T08:33:54.000Z</time>
      </trkpt>
      <trkpt lat="39.347975" lon="-76.394111">
        <ele>8.921436</ele>
        <time>2024-10-06T08:33:57.000Z</time>
      </trkpt>
      <trkpt lat="39.348167" lon="-76.394095">
        <ele>9.058019</ele>
        <time>2024-10-06T08:33:59.000Z</time>
      </trkpt>
      <trkpt lat="39.348269" lon="-76.394086">
        <ele>9.128514</ele>
        <time>2024-10-06T08:34:00.000Z</time>
      </trkpt>
      <trkpt lat="39.348513" lon="-76.39405">
        <ele>9.301195</ele>
        <time>2024-10-06T08:34:03.000Z</time>
      </trkpt>
      <trkpt lat="39.348713" lon="-76.39395">
        <ele>9.464088</ele>
        <time>2024-10-06T08:34:05.000Z</time>
      </trkpt>
      <trkpt lat="39.34912" lon="-76.393688">
        <ele>9.790482</ele>
        <time>2024-10-06T08:34:10.000Z</time>
      </trkpt>
      <trkpt lat="39.349242" lon="-76.393655">
        <ele>9.879627</ele>
        <time>2024-10-06T08:34:11.000Z</time>
      </trkpt>
      <trkpt lat="39.34948" lon="-76.393666">
        <ele>10.051307</ele>
        <time>2024-10-06T08:34:14.000Z</time>
      </trkpt>
      <trkpt lat="39.350197" lon="-76.393902">
        <ele>10.507596</ele>
        <time>2024-10-06T08:34:22.000Z</time>
      </trkpt>
      <trkpt lat="39.350537" lon="-76.394005">
        <ele>10.694255</ele>
        <time>2024-10-06T08:34:26.000Z</time>
      </trkpt>
      <trkpt lat="39.350786" lon="-76.394037">
        <ele>10.828488</ele>
        <time>2024-10-06T08:34:29.000Z</time>
      </trkpt>
      <trkpt lat="39.351656" lon="-76.39394">
        <ele>11.291014</ele>
        <time>2024-10-06T08:34:39.000Z</time>
      </trkpt>
      <trkpt lat="39.351817" lon="-76.393951">
        <ele>11.380241</ele>
        <time>2024-10-06T08:34:41.000Z</time>
      </trkpt>
      <trkpt lat="39.352162" lon="-76.39401">
        <ele>11.570506</ele>
        <time>2024-10-06T08:34:45.000Z</time>
      </trkpt>
      <trkpt lat="39.352423" lon="-76.394091">
        <ele>11.719183</ele>
        <time>2024-10-06T08:34:48.000Z</time>
      </trkpt>
      <trkpt lat="39.353247" lon="-76.394354">
        <ele>12.195969</ele>
        <time>2024-10-06T08:34:57.000Z</time>
      </trkpt>
      <trkpt lat="39.353566" lon="-76.394455">
        <ele>12.456368</ele>
        <time>2024-10-06T08:35:01.000Z</time>
      </trkpt>
      <trkpt lat="39.354142" lon="-76.394633">
        <ele>12.991266</ele>
        <time>2024-10-06T08:35:08.000Z</time>
      </trkpt>
      <trkpt lat="39.35465" lon="-76.394846">
        <ele>13.466034</ele>
        <time>2024-10-06T08:35:14.000Z</time>
      </trkpt>
      <trkpt lat="39.354857" lon="-76.394911">
        <ele>13.648322</ele>
        <time>2024-10-06T08:35:16.000Z</time>
      </trkpt>
      <trkpt lat="39.355047" lon="-76.394925">
        <ele>13.820961</ele>
        <time>2024-10-06T08:35:18.000Z</time>
      </trkpt>
      <trkpt lat="39.35521" lon="-76.39489">
        <ele>14.022235</ele>
        <time>2024-10-06T08:35:20.000Z</time>
      </trkpt>
      <trkpt lat="39.355539" lon="-76.394752">
        <ele>14.446358</ele>
        <time>2024-10-06T08:35:24.000Z</time>
      </trkpt>
      <trkpt lat="39.357809" lon="-76.393497">
        <ele>17.616865</ele>
        <time>2024-10-06T08:35:51.000Z</time>
      </trkpt>
      <trkpt lat="39.358254" lon="-76.393257">
        <ele>18.229792</ele>
        <time>2024-10-06T08:35:56.000Z</time>
      </trkpt>
      <trkpt lat="39.358432" lon="-76.393163">
        <ele>18.510723</ele>
        <time>2024-10-06T08:35:58.000Z</time>
      </trkpt>
      <trkpt lat="39.359198" lon="-76.392767">
        <ele>19.831682</ele>
        <time>2024-10-06T08:36:07.000Z</time>
      </trkpt>
      <trkpt lat="39.359455" lon="-76.392647">
        <ele>20.248954</ele>
        <time>2024-10-06T08:36:10.000Z</time>
      </trkpt>
      <trkpt lat="39.36034" lon="-76.392177">
        <ele>21.574362</ele>
        <time>2024-10-06T08:36:21.000Z</time>
      </trkpt>
      <trkpt lat="39.360511" lon="-76.39199">
        <ele>21.781231</ele>
        <time>2024-10-06T08:36:23.000Z</time>
      </trkpt>
      <trkpt lat="39.360605" lon="-76.39184">
        <ele>21.911891</ele>
        <time>2024-10-06T08:36:25.000Z</time>
      </trkpt>
      <trkpt lat="39.360619" lon="-76.391835">
        <ele>21.914783</ele>
        <time>2024-10-06T08:36:25.000Z</time>
      </trkpt>
      <trkpt lat="39.360721" lon="-76.39154">
        <ele>22.14024</ele>
        <time>2024-10-06T08:36:28.000Z</time>
      </trkpt>
      <trkpt lat="39.361019" lon="-76.390456">
        <ele>22.87607</ele>
        <time>2024-10-06T08:36:38.000Z</time>
      </trkpt>
      <trkpt lat="39.361178" lon="-76.390071">
        <ele>22.622706</ele>
        <time>2024-10-06T08:36:42.000Z</time>
      </trkpt>
      <trkpt lat="39.361487" lon="-76.389361">
        <ele>22.157592</ele>
        <time>2024-10-06T08:36:49.000Z</time>
      </trkpt>
      <trkpt lat="39.361734" lon="-76.388913">
        <ele>21.837075</ele>
        <time>2024-10-06T08:36:54.000Z</time>
      </trkpt>
      <trkpt lat="39.36213" lon="-76.388581">
        <ele>21.396725</ele>
        <time>2024-10-06T08:36:59.000Z</time>
      </trkpt>
      <trkpt lat="39.3627" lon="-76.388232">
        <ele>20.352738</ele>
        <time>2024-10-06T08:37:06.000Z</time>
      </trkpt>
      <trkpt lat="39.362558" lon="-76.387516">
        <ele>19.392447</ele>
        <time>2024-10-06T08:37:12.000Z</time>
      </trkpt>
      <trkpt lat="39.362545" lon="-76.386941">
        <ele>18.627853</ele>
        <time>2024-10-06T08:37:17.000Z</time>
      </trkpt>
      <trkpt lat="39.362541" lon="-76.386837">
        <ele>18.478463</ele>
        <time>2024-10-06T08:37:18.000Z</time>
      </trkpt>
      <trkpt lat="39.362651" lon="-76.386153">
        <ele>16.910364</ele>
        <time>2024-10-06T08:37:24.000Z</time>
      </trkpt>
      <trkpt lat="39.362739" lon="-76.385983">
        <ele>16.482167</ele>
        <time>2024-10-06T08:37:26.000Z</time>
      </trkpt>
      <trkpt lat="39.36285" lon="-76.385863">
        <ele>16.049855</ele>
        <time>2024-10-06T08:37:28.000Z</time>
      </trkpt>
      <trkpt lat="39.363183" lon="-76.385685">
        <ele>15.040917</ele>
        <time>2024-10-06T08:37:32.000Z</time>
      </trkpt>
      <trkpt lat="39.363323" lon="-76.384741">
        <ele>12.973935</ele>
        <time>2024-10-06T08:37:40.000Z</time>
      </trkpt>
      <trkpt lat="39.363644" lon="-76.382663">
        <ele>9.079307</ele>
        <time>2024-10-06T08:37:58.000Z</time>
      </trkpt>
      <trkpt lat="39.363813" lon="-76.381265">
        <ele>7.388606</ele>
        <time>2024-10-06T08:38:10.000Z</time>
      </trkpt>
      <trkpt lat="39.363846" lon="-76.380607">
        <ele>6.619067</ele>
        <time>2024-10-06T08:38:16.000Z</time>
      </trkpt>
      <trkpt lat="39.363828" lon="-76.380305">
        <ele>6.296832</ele>
        <time>2024-10-06T08:38:19.000Z</time>
      </trkpt>
      <trkpt lat="39.363693" lon="-76.378983">
        <ele>5.708071</ele>
        <time>2024-10-06T08:38:30.000Z</time>
      </trkpt>
      <trkpt lat="39.36361" lon="-76.377977">
        <ele>5.311397</ele>
        <time>2024-10-06T08:38:39.000Z</time>
      </trkpt>
      <trkpt lat="39.363641" lon="-76.37716">
        <ele>5.397396</ele>
        <time>2024-10-06T08:38:46.000Z</time>
      </trkpt>
      <trkpt lat="39.363753" lon="-76.375722">
        <ele>5.543742</ele>
        <time>2024-10-06T08:38:58.000Z</time>
      </trkpt>
      <trkpt lat="39.363772" lon="-76.375272">
        <ele>5.455566</ele>
        <time>2024-10-06T08:39:02.000Z</time>
      </trkpt>
      <trkpt lat="39.363767" lon="-76.375022">
        <ele>5.407906</ele>
        <time>2024-10-06T08:39:04.000Z</time>
      </trkpt>
      <trkpt lat="39.363716" lon="-76.37446">
        <ele>5.301297</ele>
        <time>2024-10-06T08:39:09.000Z</time>
      </trkpt>
      <trkpt lat="39.363715" lon="-76.374328">
        <ele>5.277321</ele>
        <time>2024-10-06T08:39:10.000Z</time>
      </trkpt>
      <trkpt lat="39.36367" lon="-76.373957">
        <ele>5.205136</ele>
        <time>2024-10-06T08:39:13.000Z</time>
      </trkpt>
      <trkpt lat="39.363683" lon="-76.373631">
        <ele>5.143575</ele>
        <time>2024-10-06T08:39:16.000Z</time>
      </trkpt>
      <trkpt lat="39.363728" lon="-76.373009">
        <ele>5.056511</ele>
        <time>2024-10-06T08:39:21.000Z</time>
      </trkpt>
      <trkpt lat="39.363826" lon="-76.372626">
        <ele>5.013185</ele>
        <time>2024-10-06T08:39:24.000Z</time>
      </trkpt>
      <trkpt lat="39.364143" lon="-76.371647">
        <ele>4.897423</ele>
        <time>2024-10-06T08:39:33.000Z</time>
      </trkpt>
      <trkpt lat="39.3644" lon="-76.370843">
        <ele>4.990619</ele>
        <time>2024-10-06T08:39:40.000Z</time>
      </trkpt>
      <trkpt lat="39.364452" lon="-76.370534">
        <ele>5.093617</ele>
        <time>2024-10-06T08:39:43.000Z</time>
      </trkpt>
      <trkpt lat="39.364527" lon="-76.370011">
        <ele>5.265353</ele>
        <time>2024-10-06T08:39:48.000Z</time>
      </trkpt>
      <trkpt lat="39.364523" lon="-76.369211">
        <ele>5.523859</ele>
        <time>2024-10-06T08:39:55.000Z</time>
      </trkpt>
      <trkpt lat="39.364382" lon="-76.368311">
        <ele>5.735198</ele>
        <time>2024-10-06T08:40:03.000Z</time>
      </trkpt>
      <trkpt lat="39.364254" lon="-76.367748">
        <ele>5.850348</ele>
        <time>2024-10-06T08:40:08.000Z</time>
      </trkpt>
      <trkpt lat="39.364146" lon="-76.367471">
        <ele>5.908119</ele>
        <time>2024-10-06T08:40:11.000Z</time>
      </trkpt>
      <trkpt lat="39.363915" lon="-76.366906">
        <ele>6.0347</ele>
        <time>2024-10-06T08:40:16.000Z</time>
      </trkpt>
      <trkpt lat="39.363584" lon="-76.366279">
        <ele>5.919137</ele>
        <time>2024-10-06T08:40:23.000Z</time>
      </trkpt>
      <trkpt lat="39.363373" lon="-76.365872">
        <ele>5.815724</ele>
        <time>2024-10-06T08:40:27.000Z</time>
      </trkpt>
      <trkpt lat="39.363165" lon="-76.365453">
        <ele>5.709141</ele>
        <time>2024-10-06T08:40:31.000Z</time>
      </trkpt>
      <trkpt lat="39.363072" lon="-76.365199">
        <ele>5.651238</ele>
        <time>2024-10-06T08:40:33.000Z</time>
      </trkpt>
      <trkpt lat="39.362916" lon="-76.364755">
        <ele>5.532606</ele>
        <time>2024-10-06T08:40:37.000Z</time>
      </trkpt>
      <trkpt lat="39.36269" lon="-76.36383">
        <ele>5.113693</ele>
        <time>2024-10-06T08:40:45.000Z</time>
      </trkpt>
      <trkpt lat="39.362314" lon="-76.362355">
        <ele>4.580412</ele>
        <time>2024-10-06T08:40:58.000Z</time>
      </trkpt>
      <trkpt lat="39.362263" lon="-76.361988">
        <ele>4.613528</ele>
        <time>2024-10-06T08:41:01.000Z</time>
      </trkpt>
      <trkpt lat="39.362202" lon="-76.361391">
        <ele>4.66686</ele>
        <time>2024-10-06T08:41:06.000Z</time>
      </trkpt>
      <trkpt lat="39.362186" lon="-76.360604">
        <ele>4.734783</ele>
        <time>2024-10-06T08:41:13.000Z</time>
      </trkpt>
      <trkpt lat="39.362205" lon="-76.360185">
        <ele>4.768583</ele>
        <time>2024-10-06T08:41:17.000Z</time>
      </trkpt>
      <trkpt lat="39.362209" lon="-76.359754">
        <ele>4.796852</ele>
        <time>2024-10-06T08:41:21.000Z</time>
      </trkpt>
      <trkpt lat="39.362214" lon="-76.359499">
        <ele>4.81417</ele>
        <time>2024-10-06T08:41:23.000Z</time>
      </trkpt>
      <trkpt lat="39.362151" lon="-76.359188">
        <ele>4.83465</ele>
        <time>2024-10-06T08:41:26.000Z</time>
      </trkpt>
      <trkpt lat="39.362095" lon="-76.359006">
        <ele>4.847873</ele>
        <time>2024-10-06T08:41:28.000Z</time>
      </trkpt>
      <trkpt lat="39.361915" lon="-76.358699">
        <ele>4.87211</ele>
        <time>2024-10-06T08:41:31.000Z</time>
      </trkpt>
      <trkpt lat="39.361805" lon="-76.358564">
        <ele>4.884959</ele>
        <time>2024-10-06T08:41:33.000Z</time>
      </trkpt>
      <trkpt lat="39.36115" lon="-76.357998">
        <ele>4.479026</ele>
        <time>2024-10-06T08:41:42.000Z</time>
      </trkpt>
      <trkpt lat="39.360904" lon="-76.357796">
        <ele>4.217583</ele>
        <time>2024-10-06T08:41:45.000Z</time>
      </trkpt>
      <trkpt lat="39.360454" lon="-76.357601">
        <ele>3.781388</ele>
        <time>2024-10-06T08:41:50.000Z</time>
      </trkpt>
      <trkpt lat="39.360221" lon="-76.357478">
        <ele>3.551162</ele>
        <time>2024-10-06T08:41:53.000Z</time>
      </trkpt>
      <trkpt lat="39.359675" lon="-76.357081">
        <ele>3.049851</ele>
        <time>2024-10-06T08:42:00.000Z</time>
      </trkpt>
      <trkpt lat="39.35938" lon="-76.356798">
        <ele>2.81232</ele>
        <time>2024-10-06T08:42:04.000Z</time>
      </trkpt>
      <trkpt lat="39.358932" lon="-76.356262">
        <ele>2.412401</ele>
        <time>2024-10-06T08:42:11.000Z</time>
      </trkpt>
      <trkpt lat="39.358325" lon="-76.355828">
        <ele>2.062425</ele>
        <time>2024-10-06T08:42:19.000Z</time>
      </trkpt>
      <trkpt lat="39.358034" lon="-76.355711">
        <ele>2.037782</ele>
        <time>2024-10-06T08:42:22.000Z</time>
      </trkpt>
      <trkpt lat="39.357675" lon="-76.355685">
        <ele>2.009363</ele>
        <time>2024-10-06T08:42:26.000Z</time>
      </trkpt>
      <trkpt lat="39.357502" lon="-76.355638">
        <ele>1.995452</ele>
        <time>2024-10-06T08:42:28.000Z</time>
      </trkpt>
      <trkpt lat="39.357114" lon="-76.355425">
        <ele>1.963392</ele>
        <time>2024-10-06T08:42:33.000Z</time>
      </trkpt>
      <trkpt lat="39.356773" lon="-76.355159">
        <ele>1.948528</ele>
        <time>2024-10-06T08:42:37.000Z</time>
      </trkpt>
      <trkpt lat="39.356644" lon="-76.354978">
        <ele>2.012616</ele>
        <time>2024-10-06T08:42:39.000Z</time>
      </trkpt>
      <trkpt lat="39.356522" lon="-76.354747">
        <ele>2.086583</ele>
        <time>2024-10-06T08:42:41.000Z</time>
      </trkpt>
      <trkpt lat="39.356021" lon="-76.353381">
        <ele>2.486056</ele>
        <time>2024-10-06T08:42:54.000Z</time>
      </trkpt>
      <trkpt lat="39.355842" lon="-76.353074">
        <ele>2.592587</ele>
        <time>2024-10-06T08:42:57.000Z</time>
      </trkpt>
      <trkpt lat="39.355737" lon="-76.352836">
        <ele>2.684206</ele>
        <time>2024-10-06T08:42:59.000Z</time>
      </trkpt>
      <trkpt lat="39.35556" lon="-76.352221">
        <ele>2.895778</ele>
        <time>2024-10-06T08:43:05.000Z</time>
      </trkpt>
      <trkpt lat="39.355551" lon="-76.352229">
        <ele>2.897133</ele>
        <time>2024-10-06T08:43:05.000Z</time>
      </trkpt>
      <trkpt lat="39.355373" lon="-76.351755">
        <ele>3.068641</ele>
        <time>2024-10-06T08:43:10.000Z</time>
      </trkpt>
      <trkpt lat="39.355109" lon="-76.35137">
        <ele>3.232033</ele>
        <time>2024-10-06T08:43:14.000Z</time>
      </trkpt>
      <trkpt lat="39.35484" lon="-76.351071">
        <ele>3.287246</ele>
        <time>2024-10-06T08:43:18.000Z</time>
      </trkpt>
      <trkpt lat="39.354649" lon="-76.350979">
        <ele>3.271437</ele>
        <time>2024-10-06T08:43:20.000Z</time>
      </trkpt>
      <trkpt lat="39.354366" lon="-76.351047">
        <ele>3.247106</ele>
        <time>2024-10-06T08:43:23.000Z</time>
      </trkpt>
      <trkpt lat="39.354149" lon="-76.351215">
        <ele>3.224925</ele>
        <time>2024-10-06T08:43:26.000Z</time>
      </trkpt>
      <trkpt lat="39.353802" lon="-76.351658">
        <ele>3.183887</ele>
        <time>2024-10-06T08:43:31.000Z</time>
      </trkpt>
      <trkpt lat="39.353702" lon="-76.351735">
        <ele>3.174683</ele>
        <time>2024-10-06T08:43:32.000Z</time>
      </trkpt>
      <trkpt lat="39.353543" lon="-76.351814">
        <ele>3.159941</ele>
        <time>2024-10-06T08:43:34.000Z</time>
      </trkpt>
      <trkpt lat="39.353288" lon="-76.35181">
        <ele>3.087569</ele>
        <time>2024-10-06T08:43:37.000Z</time>
      </trkpt>
      <trkpt lat="39.352984" lon="-76.351654">
        <ele>2.957023</ele>
        <time>2024-10-06T08:43:41.000Z</time>
      </trkpt>
      <trkpt lat="39.352986" lon="-76.351644">
        <ele>2.957027</ele>
        <time>2024-10-06T08:43:41.000Z</time>
      </trkpt>
      <trkpt lat="39.352333" lon="-76.35116">
        <ele>2.666481</ele>
        <time>2024-10-06T08:43:49.000Z</time>
      </trkpt>
      <trkpt lat="39.352204" lon="-76.351155">
        <ele>2.613485</ele>
        <time>2024-10-06T08:43:50.000Z</time>
      </trkpt>
      <trkpt lat="39.352024" lon="-76.351252">
        <ele>2.538405</ele>
        <time>2024-10-06T08:43:52.000Z</time>
      </trkpt>
      <trkpt lat="39.351435" lon="-76.351765">
        <ele>2.369193</ele>
        <time>2024-10-06T08:44:00.000Z</time>
      </trkpt>
      <trkpt lat="39.349937" lon="-76.353155">
        <ele>2.0072</ele>
        <time>2024-10-06T08:44:21.000Z</time>
      </trkpt>
      <trkpt lat="39.349678" lon="-76.353319">
        <ele>1.932094</ele>
        <time>2024-10-06T08:44:24.000Z</time>
      </trkpt>
      <trkpt lat="39.348299" lon="-76.354056">
        <ele>1.567517</ele>
        <time>2024-10-06T08:44:41.000Z</time>
      </trkpt>
      <trkpt lat="39.347692" lon="-76.354425">
        <ele>1.429581</ele>
        <time>2024-10-06T08:44:48.000Z</time>
      </trkpt>
      <trkpt lat="39.347276" lon="-76.354751">
        <ele>1.327524</ele>
        <time>2024-10-06T08:44:53.000Z</time>
      </trkpt>
      <trkpt lat="39.347694" lon="-76.354434">
        <ele>1.395171</ele>
        <time>2024-10-06T08:44:58.000Z</time>
      </trkpt>
      <trkpt lat="39.348307" lon="-76.354045">
        <ele>1.564149</ele>
        <time>2024-10-06T08:45:06.000Z</time>
      </trkpt>
      <trkpt lat="39.349675" lon="-76.353318">
        <ele>1.929088</ele>
        <time>2024-10-06T08:45:22.000Z</time>
      </trkpt>
      <trkpt lat="39.349929" lon="-76.353158">
        <ele>1.9967</ele>
        <time>2024-10-06T08:45:25.000Z</time>
      </trkpt>
      <trkpt lat="39.351442" lon="-76.351764">
        <ele>2.390139</ele>
        <time>2024-10-06T08:45:46.000Z</time>
      </trkpt>
      <trkpt lat="39.352035" lon="-76.351245">
        <ele>2.526088</ele>
        <time>2024-10-06T08:45:54.000Z</time>
      </trkpt>
      <trkpt lat="39.352201" lon="-76.351148">
        <ele>2.596356</ele>
        <time>2024-10-06T08:45:56.000Z</time>
      </trkpt>
      <trkpt lat="39.352332" lon="-76.35116">
        <ele>2.648943</ele>
        <time>2024-10-06T08:45:57.000Z</time>
      </trkpt>
      <trkpt lat="39.35298" lon="-76.351642">
        <ele>2.937397</ele>
        <time>2024-10-06T08:46:05.000Z</time>
      </trkpt>
      <trkpt lat="39.353295" lon="-76.35182">
        <ele>3.067001</ele>
        <time>2024-10-06T08:46:09.000Z</time>
      </trkpt>
      <trkpt lat="39.353545" lon="-76.351813">
        <ele>3.166427</ele>
        <time>2024-10-06T08:46:12.000Z</time>
      </trkpt>
      <trkpt lat="39.353717" lon="-76.351739">
        <ele>3.228946</ele>
        <time>2024-10-06T08:46:14.000Z</time>
      </trkpt>
      <trkpt lat="39.3538" lon="-76.35166">
        <ele>3.229813</ele>
        <time>2024-10-06T08:46:15.000Z</time>
      </trkpt>
      <trkpt lat="39.354149" lon="-76.351214">
        <ele>3.23369</ele>
        <time>2024-10-06T08:46:20.000Z</time>
      </trkpt>
      <trkpt lat="39.354378" lon="-76.351043">
        <ele>3.235805</ele>
        <time>2024-10-06T08:46:23.000Z</time>
      </trkpt>
      <trkpt lat="39.354658" lon="-76.350985">
        <ele>3.238097</ele>
        <time>2024-10-06T08:46:26.000Z</time>
      </trkpt>
      <trkpt lat="39.35484" lon="-76.351059">
        <ele>3.239594</ele>
        <time>2024-10-06T08:46:28.000Z</time>
      </trkpt>
      <trkpt lat="39.355112" lon="-76.351373">
        <ele>3.242528</ele>
        <time>2024-10-06T08:46:32.000Z</time>
      </trkpt>
      <trkpt lat="39.355379" lon="-76.351749">
        <ele>3.103598</ele>
        <time>2024-10-06T08:46:36.000Z</time>
      </trkpt>
      <trkpt lat="39.355554" lon="-76.352225">
        <ele>2.918809</ele>
        <time>2024-10-06T08:46:41.000Z</time>
      </trkpt>
      <trkpt lat="39.355566" lon="-76.352221">
        <ele>2.91735</ele>
        <time>2024-10-06T08:46:41.000Z</time>
      </trkpt>
      <trkpt lat="39.355734" lon="-76.352828">
        <ele>2.689392</ele>
        <time>2024-10-06T08:46:47.000Z</time>
      </trkpt>
      <trkpt lat="39.355851" lon="-76.353074">
        <ele>2.590664</ele>
        <time>2024-10-06T08:46:49.000Z</time>
      </trkpt>
      <trkpt lat="39.356013" lon="-76.353379">
        <ele>2.460345</ele>
        <time>2024-10-06T08:46:52.000Z</time>
      </trkpt>
      <trkpt lat="39.356522" lon="-76.354741">
        <ele>2.107587</ele>
        <time>2024-10-06T08:47:05.000Z</time>
      </trkpt>
      <trkpt lat="39.356657" lon="-76.354982">
        <ele>2.044412</ele>
        <time>2024-10-06T08:47:08.000Z</time>
      </trkpt>
      <trkpt lat="39.356782" lon="-76.355154">
        <ele>1.989671</ele>
        <time>2024-10-06T08:47:10.000Z</time>
      </trkpt>
      <trkpt lat="39.357111" lon="-76.355429">
        <ele>1.920956</ele>
        <time>2024-10-06T08:47:14.000Z</time>
      </trkpt>
      <trkpt lat="39.3575" lon="-76.355635">
        <ele>1.979812</ele>
        <time>2024-10-06T08:47:19.000Z</time>
      </trkpt>
      <trkpt lat="39.357666" lon="-76.355685">
        <ele>2.005373</ele>
        <time>2024-10-06T08:47:21.000Z</time>
      </trkpt>
      <trkpt lat="39.358029" lon="-76.35571">
        <ele>2.057566</ele>
        <time>2024-10-06T08:47:25.000Z</time>
      </trkpt>
      <trkpt lat="39.35833" lon="-76.355812">
        <ele>2.102833</ele>
        <time>2024-10-06T08:47:28.000Z</time>
      </trkpt>
      <trkpt lat="39.358927" lon="-76.35626">
        <ele>2.362204</ele>
        <time>2024-10-06T08:47:36.000Z</time>
      </trkpt>
      <trkpt lat="39.359393" lon="-76.356794">
        <ele>2.820081</ele>
        <time>2024-10-06T08:47:43.000Z</time>
      </trkpt>
      <trkpt lat="39.359666" lon="-76.357084">
        <ele>3.092</ele>
        <time>2024-10-06T08:47:47.000Z</time>
      </trkpt>
      <trkpt lat="39.360231" lon="-76.357468">
        <ele>3.586746</ele>
        <time>2024-10-06T08:47:54.000Z</time>
      </trkpt>
      <trkpt lat="39.360462" lon="-76.3576">
        <ele>3.848058</ele>
        <time>2024-10-06T08:47:57.000Z</time>
      </trkpt>
      <trkpt lat="39.360912" lon="-76.357779">
        <ele>4.343112</ele>
        <time>2024-10-06T08:48:02.000Z</time>
      </trkpt>
      <trkpt lat="39.361146" lon="-76.357996">
        <ele>4.63983</ele>
        <time>2024-10-06T08:48:05.000Z</time>
      </trkpt>
      <trkpt lat="39.361687" lon="-76.357319">
        <ele>5.409397</ele>
        <time>2024-10-06T08:48:13.000Z</time>
      </trkpt>
      <trkpt lat="39.361848" lon="-76.357079">
        <ele>5.493727</ele>
        <time>2024-10-06T08:48:16.000Z</time>
      </trkpt>
      <trkpt lat="39.362018" lon="-76.356471">
        <ele>5.663718</ele>
        <time>2024-10-06T08:48:22.000Z</time>
      </trkpt>
      <trkpt lat="39.362032" lon="-76.356129">
        <ele>5.758826</ele>
        <time>2024-10-06T08:48:25.000Z</time>
      </trkpt>
      <trkpt lat="39.361994" lon="-76.35578">
        <ele>5.853733</ele>
        <time>2024-10-06T08:48:28.000Z</time>
      </trkpt>
      <trkpt lat="39.361736" lon="-76.355088">
        <ele>5.994602</ele>
        <time>2024-10-06T08:48:35.000Z</time>
      </trkpt>
      <trkpt lat="39.361743" lon="-76.355002">
        <ele>5.979858</ele>
        <time>2024-10-06T08:48:36.000Z</time>
      </trkpt>
      <trkpt lat="39.361696" lon="-76.35484">
        <ele>5.94216</ele>
        <time>2024-10-06T08:48:37.000Z</time>
      </trkpt>
      <trkpt lat="39.361639" lon="-76.354701">
        <ele>5.911968</ele>
        <time>2024-10-06T08:48:38.000Z</time>
      </trkpt>
      <trkpt lat="39.361598" lon="-76.354663">
        <ele>5.898801</ele>
        <time>2024-10-06T08:48:39.000Z</time>
      </trkpt>
      <trkpt lat="39.361526" lon="-76.354451">
        <ele>5.85378</ele>
        <time>2024-10-06T08:48:41.000Z</time>
      </trkpt>
      <trkpt lat="39.361481" lon="-76.353623">
        <ele>5.686792</ele>
        <time>2024-10-06T08:48:48.000Z</time>
      </trkpt>
      <trkpt lat="39.361428" lon="-76.353226">
        <ele>5.608162</ele>
        <time>2024-10-06T08:48:51.000Z</time>
      </trkpt>
      <trkpt lat="39.361441" lon="-76.353035">
        <ele>5.571576</ele>
        <time>2024-10-06T08:48:53.000Z</time>
      </trkpt>
      <trkpt lat="39.361446" lon="-76.35285">
        <ele>5.507057</ele>
        <time>2024-10-06T08:48:55.000Z</time>
      </trkpt>
      <trkpt lat="39.361546" lon="-76.35223">
        <ele>5.266849</ele>
        <time>2024-10-06T08:49:00.000Z</time>
      </trkpt>
      <trkpt lat="39.361551" lon="-76.352224">
        <ele>5.266085</ele>
        <time>2024-10-06T08:49:00.000Z</time>
      </trkpt>
      <trkpt lat="39.361558" lon="-76.352012">
        <ele>5.180322</ele>
        <time>2024-10-06T08:49:02.000Z</time>
      </trkpt>
      <trkpt lat="39.361542" lon="-76.351689">
        <ele>5.059428</ele>
        <time>2024-10-06T08:49:05.000Z</time>
      </trkpt>
      <trkpt lat="39.361453" lon="-76.351426">
        <ele>4.949273</ele>
        <time>2024-10-06T08:49:07.000Z</time>
      </trkpt>
      <trkpt lat="39.361319" lon="-76.351139">
        <ele>4.821447</ele>
        <time>2024-10-06T08:49:10.000Z</time>
      </trkpt>
      <trkpt lat="39.361148" lon="-76.350898">
        <ele>4.69423</ele>
        <time>2024-10-06T08:49:13.000Z</time>
      </trkpt>
      <trkpt lat="39.361026" lon="-76.350761">
        <ele>4.694508</ele>
        <time>2024-10-06T08:49:15.000Z</time>
      </trkpt>
      <trkpt lat="39.360676" lon="-76.350346">
        <ele>4.822354</ele>
        <time>2024-10-06T08:49:20.000Z</time>
      </trkpt>
      <trkpt lat="39.360659" lon="-76.350344">
        <ele>4.823022</ele>
        <time>2024-10-06T08:49:20.000Z</time>
      </trkpt>
      <trkpt lat="39.360344" lon="-76.349893">
        <ele>4.947057</ele>
        <time>2024-10-06T08:49:25.000Z</time>
      </trkpt>
      <trkpt lat="39.360184" lon="-76.349634">
        <ele>5.01418</ele>
        <time>2024-10-06T08:49:28.000Z</time>
      </trkpt>
      <trkpt lat="39.359962" lon="-76.349142">
        <ele>5.12849</ele>
        <time>2024-10-06T08:49:33.000Z</time>
      </trkpt>
      <trkpt lat="39.359881" lon="-76.348825">
        <ele>5.189957</ele>
        <time>2024-10-06T08:49:36.000Z</time>
      </trkpt>
      <trkpt lat="39.359794" lon="-76.348561">
        <ele>5.238249</ele>
        <time>2024-10-06T08:49:38.000Z</time>
      </trkpt>
      <trkpt lat="39.359743" lon="-76.348204">
        <ele>5.303584</ele>
        <time>2024-10-06T08:49:41.000Z</time>
      </trkpt>
      <trkpt lat="39.359727" lon="-76.34784">
        <ele>5.366937</ele>
        <time>2024-10-06T08:49:44.000Z</time>
      </trkpt>
      <trkpt lat="39.359734" lon="-76.347558">
        <ele>5.416221</ele>
        <time>2024-10-06T08:49:46.000Z</time>
      </trkpt>
      <trkpt lat="39.359792" lon="-76.347364">
        <ele>5.452421</ele>
        <time>2024-10-06T08:49:48.000Z</time>
      </trkpt>
      <trkpt lat="39.360042" lon="-76.346768">
        <ele>5.636542</ele>
        <time>2024-10-06T08:49:54.000Z</time>
      </trkpt>
      <trkpt lat="39.360257" lon="-76.346431">
        <ele>5.890306</ele>
        <time>2024-10-06T08:49:58.000Z</time>
      </trkpt>
      <trkpt lat="39.360455" lon="-76.346129">
        <ele>6.128484</ele>
        <time>2024-10-06T08:50:01.000Z</time>
      </trkpt>
      <trkpt lat="39.360558" lon="-76.345876">
        <ele>6.289931</ele>
        <time>2024-10-06T08:50:03.000Z</time>
      </trkpt>
      <trkpt lat="39.360613" lon="-76.345564">
        <ele>6.481455</ele>
        <time>2024-10-06T08:50:06.000Z</time>
      </trkpt>
      <trkpt lat="39.36061" lon="-76.345245">
        <ele>6.666947</ele>
        <time>2024-10-06T08:50:09.000Z</time>
      </trkpt>
      <trkpt lat="39.360464" lon="-76.344483">
        <ele>7.095851</ele>
        <time>2024-10-06T08:50:16.000Z</time>
      </trkpt>
      <trkpt lat="39.360444" lon="-76.344301">
        <ele>7.185596</ele>
        <time>2024-10-06T08:50:18.000Z</time>
      </trkpt>
      <trkpt lat="39.360428" lon="-76.343772">
        <ele>7.437946</ele>
        <time>2024-10-06T08:50:23.000Z</time>
      </trkpt>
      <trkpt lat="39.360525" lon="-76.343236">
        <ele>7.703881</ele>
        <time>2024-10-06T08:50:28.000Z</time>
      </trkpt>
      <trkpt lat="39.360586" lon="-76.343065">
        <ele>7.7996</ele>
        <time>2024-10-06T08:50:30.000Z</time>
      </trkpt>
      <trkpt lat="39.36065" lon="-76.342874">
        <ele>7.898708</ele>
        <time>2024-10-06T08:50:32.000Z</time>
      </trkpt>
      <trkpt lat="39.360847" lon="-76.3425">
        <ele>8.084568</ele>
        <time>2024-10-06T08:50:36.000Z</time>
      </trkpt>
      <trkpt lat="39.360951" lon="-76.342364">
        <ele>8.137402</ele>
        <time>2024-10-06T08:50:38.000Z</time>
      </trkpt>
      <trkpt lat="39.361152" lon="-76.342166">
        <ele>8.224551</ele>
        <time>2024-10-06T08:50:41.000Z</time>
      </trkpt>
      <trkpt lat="39.361252" lon="-76.342078">
        <ele>8.266139</ele>
        <time>2024-10-06T08:50:42.000Z</time>
      </trkpt>
      <trkpt lat="39.361458" lon="-76.342005">
        <ele>8.34025</ele>
        <time>2024-10-06T08:50:44.000Z</time>
      </trkpt>
      <trkpt lat="39.361726" lon="-76.342019">
        <ele>8.4292</ele>
        <time>2024-10-06T08:50:47.000Z</time>
      </trkpt>
      <trkpt lat="39.361926" lon="-76.342078">
        <ele>8.503164</ele>
        <time>2024-10-06T08:50:49.000Z</time>
      </trkpt>
      <trkpt lat="39.362051" lon="-76.342175">
        <ele>8.552138</ele>
        <time>2024-10-06T08:50:51.000Z</time>
      </trkpt>
      <trkpt lat="39.362254" lon="-76.342421">
        <ele>8.646277</ele>
        <time>2024-10-06T08:50:54.000Z</time>
      </trkpt>
      <trkpt lat="39.362354" lon="-76.342654">
        <ele>8.69606669021</ele>
        <time>2024-10-06T08:50:56.000Z</time>
      </trkpt>
      <trkpt lat="39.362388" lon="-76.342825">
        <ele>8.72905477016</ele>
        <time>2024-10-06T08:50:58.000Z</time>
      </trkpt>
      <trkpt lat="39.362411" lon="-76.343003">
        <ele>8.76277235492</ele>
        <time>2024-10-06T08:51:00.000Z</time>
      </trkpt>
      <trkpt lat="39.362732" lon="-76.34294">
        <ele>8.84123064468</ele>
        <time>2024-10-06T08:51:04.000Z</time>
      </trkpt>
      <trkpt lat="39.362863" lon="-76.342811">
        <ele>8.88101765055</ele>
        <time>2024-10-06T08:51:06.000Z</time>
      </trkpt>
      <trkpt lat="39.362962" lon="-76.342614">
        <ele>8.92491539035</ele>
        <time>2024-10-06T08:51:08.000Z</time>
      </trkpt>
      <trkpt lat="39.36282" lon="-76.342519">
        <ele>8.96354855027</ele>
        <time>2024-10-06T08:51:10.000Z</time>
      </trkpt>
      <trkpt lat="39.362667" lon="-76.34238">
        <ele>9.0087305445</ele>
        <time>2024-10-06T08:51:12.000Z</time>
      </trkpt>
      <trkpt lat="39.36266" lon="-76.342275">
        <ele>9.02842076915</ele>
        <time>2024-10-06T08:51:13.000Z</time>
      </trkpt>
      <trkpt lat="39.362683" lon="-76.342217">
        <ele>9.04059930022</ele>
        <time>2024-10-06T08:51:14.000Z</time>
      </trkpt>
    </trkseg>
  </trk>
</gpx>

<!--
Performance optimized by W3 Total Cache. Learn more: https://www.boldgrid.com/w3-total-cache/?utm_source=w3tc&utm_medium=footer_comment&utm_campaign=free_plugin

Page Caching using Disk: Enhanced{w3tc_pagecache_reject_reason} 

Served from: www.aquabike.world @ 2026-05-10 20:20:06 by W3 Total Cache
-->